Time;durP1;ratioP1;P1;durP2;ratioP2;P2;SDS_P1;SDS_P2;PMS_P1;PMS_P2;Temp;Humidity;BMP_temperature;BMP_pressure;BME280_temperature;BME280_humidity;BME280_pressure;Samples;Min_cycle;Max_cycle;Signal;HPM_P1;HPM_P2
2021/07/06 00:01:28;;;;;;;;;;;;;;;;;;5093229;28;19908;-80
2021/07/06 00:03:54;;;;;;;;;;;;;;;;;;5091957;28;20358;-80
2021/07/06 00:06:20;;;;;;;;;;;;;;;;;;5092140;28;20006;-82
2021/07/06 00:08:46;;;;;;;;;;;;;;;;;;5092485;28;19961;-80
2021/07/06 00:11:12;;;;;;;;;;;;;;;;;;5110433;28;19956;-81
2021/07/06 00:13:38;;;;;;;;;;;;;;;;;;5111407;28;19912;-81
2021/07/06 00:16:04;;;;;;;;;;;;;;;;;;5108153;28;19965;-80
2021/07/06 00:18:29;;;;;;;;;;;;;;;;;;5108629;28;19956;-80
2021/07/06 00:20:56;;;;;;;;;;;;;;;;;;5111192;28;19910;-82
2021/07/06 00:23:22;;;;;;;;;;;;;;;;;;5111147;28;19917;-81
2021/07/06 00:25:47;;;;;;;;;;;;;;;;;;5110075;28;20017;-81
2021/07/06 00:28:13;;;;;;;;;;;;;;;;;;5109308;28;19990;-82
2021/07/06 00:30:39;;;;;;;;;;;;;;;;;;5109844;28;20357;-82
2021/07/06 00:33:05;;;;;;;;;;;;;;;;;;5110304;28;20222;-81
2021/07/06 00:35:31;;;;;;;;;;;;;;;;;;5110388;28;20421;-81
2021/07/06 00:37:57;;;;;;;;;;;;;;;;;;5110624;28;19931;-81
2021/07/06 00:40:23;;;;;;;;;;;;;;;;;;5110257;28;20411;-83
2021/07/06 00:42:49;;;;;;;;;;;;;;;;;;5110818;28;20085;-82
2021/07/06 00:45:15;;;;;;;;;;;;;;;;;;5110335;28;20097;-82
2021/07/06 00:47:41;;;;;;;;;;;;;;;;;;5088080;28;20420;-81
2021/07/06 00:50:07;;;;;;;;;;;;;;;;;;5110854;28;19919;-81
2021/07/06 00:52:33;;;;;;;;;;;;;;;;;;5110490;28;19904;-81
2021/07/06 00:54:58;;;;;;;;;;;;;;;;;;5110781;28;19912;-80
2021/07/06 00:57:30;;;;;;;;;;;;;;;;;;5109140;28;20004;-79
2021/07/06 00:59:56;;;;;;;;;;;;;;;;;;5108685;28;19908;-80
2021/07/06 01:02:22;;;;;;;;;;;;;;;;;;5093748;28;20380;-80
2021/07/06 01:04:48;;;;;;;;;;;;;;;;;;5093035;28;19907;-80
2021/07/06 01:07:14;;;;;;;;;;;;;;;;;;5110306;28;20002;-81
2021/07/06 01:09:40;;;;;;;;;;;;;;;;;;5109682;28;19927;-80
2021/07/06 01:12:05;;;;;;;;;;;;;;;;;;5078343;28;20372;-81
2021/07/06 01:14:31;;;;;;;;;;;;;;;;;;5104546;28;20008;-80
2021/07/06 01:16:57;;;;;;;;;;;;;;;;;;5109620;28;19911;-80
2021/07/06 01:19:23;;;;;;;;;;;;;;;;;;5109621;28;19911;-81
2021/07/06 01:21:49;;;;;;;;;;;;;;;;;;5110402;28;19912;-81
2021/07/06 01:24:15;;;;;;;;;;;;;;;;;;5091002;28;20255;-81
2021/07/06 01:26:41;;;;;;;;;;;;;;;;;;5110081;28;19908;-81
2021/07/06 01:29:07;;;;;;;;;;;;;;;;;;5108608;28;20357;-80
2021/07/06 01:31:33;;;;;;;;;;;;;;;;;;5109479;28;20361;-81
2021/07/06 01:33:58;;;;;;;;;;;;;;;;;;5109692;28;19911;-81
2021/07/06 01:36:24;;;;;;;;;;;;;;;;;;5109281;28;19946;-81
2021/07/06 01:38:50;;;;;;;;;;;;;;;;;;5108919;28;19968;-80
2021/07/06 01:41:16;;;;;;;;;;;;;;;;;;5110613;28;19907;-82
2021/07/06 01:43:42;;;;;;;;;;;;;;;;;;5112591;28;19907;-81
2021/07/06 01:46:08;;;;;;;;;;;;;;;;;;5095675;28;20365;-81
2021/07/06 01:48:34;;;;;;;;;;;;;;;;;;5094511;28;19916;-82
2021/07/06 01:51:00;;;;;;;;;;;;;;;;;;5114355;28;19912;-80
2021/07/06 01:53:26;;;;;;;;;;;;;;;;;;5094650;28;19903;-80
2021/07/06 01:55:52;;;;;;;;;;;;;;;;;;5112691;28;19908;-81
2021/07/06 01:58:18;;;;;;;;;;;;;;;;;;5112789;28;19923;-81
2021/07/06 02:00:44;;;;;;;;;;;;;;;;;;5094438;28;19974;-82
2021/07/06 02:03:10;;;;;;;;;;;;;;;;;;5112546;28;19960;-80
2021/07/06 02:05:37;;;;;;;;;;;;;;;;;;5113149;28;19916;-81
2021/07/06 02:08:03;;;;;;;;;;;;;;;;;;5094835;28;19908;-81
2021/07/06 02:10:29;;;;;;;;;;;;;;;;;;5096986;28;19926;-81
2021/07/06 02:12:55;;;;;;;;;;;;;;;;;;5110914;28;20433;-80
2021/07/06 02:15:21;;;;;;;;;;;;;;;;;;5113383;28;19908;-79
2021/07/06 02:17:47;;;;;;;;;;;;;;;;;;5112446;28;19996;-81
2021/07/06 02:20:13;;;;;;;;;;;;;;;;;;5113349;28;19976;-80
2021/07/06 02:22:39;;;;;;;;;;;;;;;;;;5112988;28;20003;-81
2021/07/06 02:25:04;;;;;;;;;;;;;;;;;;5112527;28;19911;-81
2021/07/06 02:27:30;;;;;;;;;;;;;;;;;;5111537;28;19918;-80
2021/07/06 02:29:56;;;;;;;;;;;;;;;;;;5110787;28;19966;-81
2021/07/06 02:32:22;;;;;;;;;;;;;;;;;;5112797;28;20293;-79
2021/07/06 02:34:48;;;;;;;;;;;;;;;;;;5093492;28;19908;-80
2021/07/06 02:37:14;;;;;;;;;;;;;;;;;;5112989;28;19977;-79
2021/07/06 02:39:40;;;;;;;;;;;;;;;;;;5112539;28;19917;-80
2021/07/06 02:42:06;;;;;;;;;;;;;;;;;;5111887;28;19937;-80
2021/07/06 02:44:31;;;;;;;;;;;;;;;;;;5111553;28;19961;-80
2021/07/06 02:46:57;;;;;;;;;;;;;;;;;;5111837;28;19911;-80
2021/07/06 02:49:23;;;;;;;;;;;;;;;;;;5112522;28;19955;-80
2021/07/06 02:51:49;;;;;;;;;;;;;;;;;;5113085;28;20372;-80
2021/07/06 02:54:15;;;;;;;;;;;;;;;;;;5112443;28;19956;-79
2021/07/06 02:56:41;;;;;;;;;;;;;;;;;;5110751;28;20374;-80
2021/07/06 02:59:07;;;;;;;;;;;;;;;;;;5110803;28;19914;-80
2021/07/06 03:01:33;;;;;;;;;;;;;;;;;;5112646;28;19973;-80
2021/07/06 03:03:59;;;;;;;;;;;;;;;;;;5093646;28;19939;-80
2021/07/06 03:06:27;;;;;;;;;;;;;;;;;;5093560;28;19912;-80
2021/07/06 03:08:55;;;;;;;;;;;;;;;;;;5110698;28;19980;-79
2021/07/06 03:11:21;;;;;;;;;;;;;;;;;;5091772;28;19976;-80
2021/07/06 03:13:47;;;;;;;;;;;;;;;;;;5093585;28;20341;-80
2021/07/06 03:16:13;;;;;;;;;;;;;;;;;;5111751;28;20006;-79
2021/07/06 03:18:39;;;;;;;;;;;;;;;;;;5113964;28;19911;-80
2021/07/06 03:21:05;;;;;;;;;;;;;;;;;;5094197;28;20285;-80
2021/07/06 03:23:31;;;;;;;;;;;;;;;;;;5110984;28;19907;-80
2021/07/06 03:25:57;;;;;;;;;;;;;;;;;;5110725;28;19918;-80
2021/07/06 03:28:23;;;;;;;;;;;;;;;;;;5110374;28;20048;-80
2021/07/06 03:30:48;;;;;;;;;;;;;;;;;;5111862;28;19911;-82
2021/07/06 03:33:14;;;;;;;;;;;;;;;;;;5111443;28;19941;-80
2021/07/06 03:35:40;;;;;;;;;;;;;;;;;;5112016;28;19911;-79
2021/07/06 03:38:06;;;;;;;;;;;;;;;;;;5092494;28;19919;-80
2021/07/06 03:40:32;;;;;;;;;;;;;;;;;;5110565;28;19994;-79
2021/07/06 03:42:58;;;;;;;;;;;;;;;;;;5093524;28;20033;-81
2021/07/06 03:45:24;;;;;;;;;;;;;;;;;;5111394;28;19907;-80
2021/07/06 03:47:50;;;;;;;;;;;;;;;;;;5111815;28;19908;-81
2021/07/06 03:50:18;;;;;;;;;;;;;;;;;;5110711;28;19934;-81
2021/07/06 03:52:44;;;;;;;;;;;;;;;;;;5090821;28;20351;-81
2021/07/06 03:55:10;;;;;;;;;;;;;;;;;;5112042;28;19911;-79
2021/07/06 03:57:36;;;;;;;;;;;;;;;;;;5110518;28;19915;-81
2021/07/06 04:00:03;;;;;;;;;;;;;;;;;;5109786;28;19939;-80
2021/07/06 04:02:29;;;;;;;;;;;;;;;;;;5110340;28;19916;-81
2021/07/06 04:04:57;;;;;;;;;;;;;;;;;;5092624;28;19998;-81
2021/07/06 04:07:22;;;;;;;;;;;;;;;;;;5111270;28;20003;-81
2021/07/06 04:09:48;;;;;;;;;;;;;;;;;;5109404;28;20373;-80
2021/07/06 04:12:14;;;;;;;;;;;;;;;;;;5109177;28;20002;-81
2021/07/06 04:14:40;;;;;;;;;;;;;;;;;;5109072;28;19908;-80
2021/07/06 04:17:06;;;;;;;;;;;;;;;;;;5110414;28;20355;-81
2021/07/06 04:19:32;;;;;;;;;;;;;;;;;;5091879;28;20002;-80
2021/07/06 04:21:58;;;;;;;;;;;;;;;;;;5110099;28;19918;-81
2021/07/06 04:24:24;;;;;;;;;;;;;;;;;;5091559;28;19933;-81
2021/07/06 04:26:50;;;;;;;;;;;;;;;;;;5114459;28;19907;-80
2021/07/06 04:29:15;;;;;;;;;;;;;;;;;;5110043;28;20037;-81
2021/07/06 04:31:41;;;;;;;;;;;;;;;;;;5109682;28;19912;-82
2021/07/06 04:34:07;;;;;;;;;;;;;;;;;;5110189;28;20373;-81
2021/07/06 04:36:33;;;;;;;;;;;;;;;;;;5110830;28;19915;-81
2021/07/06 04:38:59;;;;;;;;;;;;;;;;;;5110544;28;20266;-81
2021/07/06 04:41:25;;;;;;;;;;;;;;;;;;5110501;28;19956;-80
2021/07/06 04:43:51;;;;;;;;;;;;;;;;;;5108825;28;19960;-83
2021/07/06 04:46:17;;;;;;;;;;;;;;;;;;5110647;28;19908;-82
2021/07/06 04:48:42;;;;;;;;;;;;;;;;;;5109193;28;19912;-82
2021/07/06 04:51:10;;;;;;;;;;;;;;;;;;5110453;28;19908;-82
2021/07/06 04:53:38;;;;;;;;;;;;;;;;;;5107866;28;19920;-81
2021/07/06 04:56:04;;;;;;;;;;;;;;;;;;5107472;28;20543;-82
2021/07/06 04:58:30;;;;;;;;;;;;;;;;;;5110712;28;19934;-82
2021/07/06 05:00:56;;;;;;;;;;;;;;;;;;5109829;28;19907;-80
2021/07/06 05:03:22;;;;;;;;;;;;;;;;;;5109801;28;19910;-81
2021/07/06 05:05:48;;;;;;;;;;;;;;;;;;5110380;28;19911;-81
2021/07/06 05:08:14;;;;;;;;;;;;;;;;;;5110596;28;19910;-79
2021/07/06 05:10:39;;;;;;;;;;;;;;;;;;5109509;28;19924;-82
2021/07/06 05:13:06;;;;;;;;;;;;;;;;;;5110565;28;19910;-79
2021/07/06 05:15:32;;;;;;;;;;;;;;;;;;5108600;28;19916;-81
2021/07/06 05:17:57;;;;;;;;;;;;;;;;;;5114199;28;19916;-82
2021/07/06 05:20:23;;;;;;;;;;;;;;;;;;5113946;28;20345;-81
2021/07/06 05:22:49;;;;;;;;;;;;;;;;;;5114385;28;19915;-81
2021/07/06 05:25:15;;;;;;;;;;;;;;;;;;5113733;28;21273;-81
2021/07/06 05:27:41;;;;;;;;;;;;;;;;;;5113724;28;19918;-80
2021/07/06 05:30:08;;;;;;;;;;;;;;;;;;5094771;28;19920;-83
2021/07/06 05:32:34;;;;;;;;;;;;;;;;;;5116788;28;19907;-82
2021/07/06 05:35:01;;;;;;;;;;;;;;;;;;5132073;28;19903;-82
2021/07/06 05:37:26;;;;;;;;;;;;;;;;;;5115668;28;19907;-79
2021/07/06 05:39:52;;;;;;;;;;;;;;;;;;5113385;28;19908;-81
2021/07/06 05:42:18;;;;;;;;;;;;;;;;;;5112406;28;19908;-81
2021/07/06 05:44:44;;;;;;;;;;;;;;;;;;5113072;28;19908;-81
2021/07/06 05:47:10;;;;;;;;;;;;;;;;;;5112480;28;19912;-79
2021/07/06 05:49:36;;;;;;;;;;;;;;;;;;5094552;28;19990;-80
2021/07/06 05:52:02;;;;;;;;;;;;;;;;;;5113931;28;19957;-81
2021/07/06 05:54:28;;;;;;;;;;;;;;;;;;5113441;28;19919;-80
2021/07/06 05:56:54;;;;;;;;;;;;;;;;;;5112690;28;19920;-82
2021/07/06 05:59:19;;;;;;;;;;;;;;;;;;5112711;28;20376;-81
2021/07/06 06:01:45;;;;;;;;;;;;;;;;;;5112986;28;20006;-81
2021/07/06 06:04:12;;;;;;;;;;;;;;;;;;5113319;28;20301;-82
2021/07/06 06:06:38;;;;;;;;;;;;;;;;;;5115518;28;19908;-82
2021/07/06 06:09:04;;;;;;;;;;;;;;;;;;5093896;28;19918;-81
2021/07/06 06:11:30;;;;;;;;;;;;;;;;;;5112715;28;19911;-79
2021/07/06 06:13:56;;;;;;;;;;;;;;;;;;5113541;28;19972;-81
2021/07/06 06:16:22;;;;;;;;;;;;;;;;;;5112384;28;19954;-80
2021/07/06 06:18:55;;;;;;;;;;;;;;;;;;5112086;28;19908;-82
2021/07/06 06:21:21;;;;;;;;;;;;;;;;;;5092940;28;19957;-80
2021/07/06 06:23:47;;;;;;;;;;;;;;;;;;5105301;28;19911;-81
2021/07/06 06:26:13;;;;;;;;;;;;;;;;;;5101168;28;19950;-81
2021/07/06 06:28:40;;;;;;;;;;;;;;;;;;5104317;28;19912;-81
2021/07/06 06:31:06;;;;;;;;;;;;;;;;;;5113150;28;19903;-78
2021/07/06 06:33:32;;;;;;;;;;;;;;;;;;5094883;28;20270;-88
2021/07/06 06:35:58;;;;;;;;;;;;;;;;;;5113431;28;19903;-89
2021/07/06 06:38:24;;;;;;;;;;;;;;;;;;5107823;28;19942;-87
2021/07/06 06:40:49;;;;;;;;;;;;;;;;;;5087721;28;19911;-89
2021/07/06 06:43:15;;;;;;;;;;;;;;;;;;5114749;28;20483;-87
2021/07/06 06:45:41;;;;;;;;;;;;;;;;;;5111843;28;19934;-89
2021/07/06 06:48:07;;;;;;;;;;;;;;;;;;5110396;28;19915;-87
2021/07/06 06:50:33;;;;;;;;;;;;;;;;;;5111185;28;19916;-81
2021/07/06 06:52:59;;;;;;;;;;;;;;;;;;5112566;28;19965;-80
2021/07/06 06:55:25;;;;;;;;;;;;;;;;;;5111122;28;20003;-80
2021/07/06 06:57:51;;;;;;;;;;;;;;;;;;5112482;28;20373;-81
2021/07/06 07:00:17;;;;;;;;;;;;;;;;;;5108491;28;20232;-80
2021/07/06 07:02:48;;;;;;;;;;;;;;;;;;5101912;28;19908;-79
2021/07/06 07:05:14;;;;;;;;;;;;;;;;;;5100345;28;19912;-80
2021/07/06 07:07:40;;;;;;;;;;;;;;;;;;5110731;28;19916;-81
2021/07/06 07:10:06;;;;;;;;;;;;;;;;;;5094421;28;19911;-82
2021/07/06 07:12:35;;;;;;;;;;;;;;;;;;5093119;28;19910;-82
2021/07/06 07:15:01;;;;;;;;;;;;;;;;;;5112634;28;19908;-79
2021/07/06 07:17:27;;;;;;;;;;;;;;;;;;5113095;28;19908;-81
2021/07/06 07:19:52;;;;;;;;;;;;;;;;;;5112286;28;19904;-81
2021/07/06 07:22:18;;;;;;;;;;;;;;;;;;5109980;28;20010;-82
2021/07/06 07:24:44;;;;;;;;;;;;;;;;;;5111205;28;20301;-82
2021/07/06 07:27:10;;;;;;;;;;;;;;;;;;5112803;28;19915;-77
2021/07/06 07:29:36;;;;;;;;;;;;;;;;;;5107418;28;20002;-77
2021/07/06 07:32:02;;;;;;;;;;;;;;;;;;5112039;28;19911;-78
2021/07/06 07:34:28;;;;;;;;;;;;;;;;;;5110030;28;20299;-77
2021/07/06 07:36:54;;;;;;;;;;;;;;;;;;5110118;28;20254;-81
2021/07/06 07:39:20;;;;;;;;;;;;;;;;;;5111347;28;20357;-80
2021/07/06 07:41:46;;;;;;;;;;;;;;;;;;5112447;28;19959;-81
2021/07/06 07:44:11;;;;;;;;;;;;;;;;;;5110435;28;19904;-81
2021/07/06 07:46:37;;;;;;;;;;;;;;;;;;5110463;28;19908;-80
2021/07/06 07:49:03;;;;;;;;;;;;;;;;;;5111253;27;20000;-81
2021/07/06 07:51:29;;;;;;;;;;;;;;;;;;5121854;28;20141;-80
2021/07/06 07:53:55;;;;;;;;;;;;;;;;;;5111266;28;20341;-77
2021/07/06 07:56:21;;;;;;;;;;;;;;;;;;5110160;28;19912;-79
2021/07/06 07:58:47;;;;;;;;;;;;;;;;;;5111707;28;19915;-79
2021/07/06 08:01:13;;;;;;;;;;;;;;;;;;5115912;28;19904;-80
2021/07/06 08:03:39;;;;;;;;;;;;;;;;;;5110629;28;19910;-80
2021/07/06 08:06:05;;;;;;;;;;;;;;;;;;5109347;28;19907;-79
2021/07/06 08:08:31;;;;;;;;;;;;;;;;;;5110715;28;19919;-80
2021/07/06 08:10:59;;;;;;;;;;;;;;;;;;5110660;28;19908;-79
2021/07/06 08:13:25;;;;;;;;;;;;;;;;;;5110516;28;19908;-79
2021/07/06 08:15:50;;;;;;;;;;;;;;;;;;5110083;28;20338;-80
2021/07/06 08:18:16;;;;;;;;;;;;;;;;;;5111492;28;20320;-80
2021/07/06 08:20:42;;;;;;;;;;;;;;;;;;5111808;28;19904;-79
2021/07/06 08:23:08;;;;;;;;;;;;;;;;;;5110323;28;20354;-79
2021/07/06 08:25:34;;;;;;;;;;;;;;;;;;5110250;28;19911;-80
2021/07/06 08:28:00;;;;;;;;;;;;;;;;;;5111839;28;19911;-80
2021/07/06 08:30:26;;;;;;;;;;;;;;;;;;5112152;28;19994;-79
2021/07/06 08:32:52;;;;;;;;;;;;;;;;;;5111021;28;19910;-80
2021/07/06 08:35:17;;;;;;;;;;;;;;;;;;5112220;28;19907;-80
2021/07/06 08:37:43;;;;;;;;;;;;;;;;;;5109864;28;19953;-79
2021/07/06 08:40:09;;;;;;;;;;;;;;;;;;5109387;28;20056;-78
2021/07/06 08:42:35;;;;;;;;;;;;;;;;;;5108670;28;19908;-79
2021/07/06 08:45:01;;;;;;;;;;;;;;;;;;5103499;28;19920;-79
2021/07/06 08:47:30;;;;;;;;;;;;;;;;;;5106105;28;19938;-79
2021/07/06 08:49:56;;;;;;;;;;;;;;;;;;5109835;28;20011;-81
2021/07/06 08:52:21;;;;;;;;;;;;;;;;;;5110271;28;20011;-81
2021/07/06 08:54:47;;;;;;;;;;;;;;;;;;5109153;28;19938;-81
2021/07/06 08:57:13;;;;;;;;;;;;;;;;;;5111596;28;19960;-81
2021/07/06 08:59:39;;;;;;;;;;;;;;;;;;5110523;28;19907;-84
2021/07/06 09:02:05;;;;;;;;;;;;;;;;;;5110285;28;19904;-83
2021/07/06 09:04:31;;;;;;;;;;;;;;;;;;5110447;28;20018;-82
2021/07/06 09:06:57;;;;;;;;;;;;;;;;;;5110699;28;20006;-82
2021/07/06 09:09:23;;;;;;;;;;;;;;;;;;5094210;28;19927;-81
2021/07/06 09:11:49;;;;;;;;;;;;;;;;;;5112320;28;19907;-82
2021/07/06 09:14:15;;;;;;;;;;;;;;;;;;5111928;28;20315;-83
2021/07/06 09:16:41;;;;;;;;;;;;;;;;;;5093265;28;19904;-80
2021/07/06 09:19:07;;;;;;;;;;;;;;;;;;5110163;28;20312;-81
2021/07/06 09:21:33;;;;;;;;;;;;;;;;;;5103998;28;20273;-81
2021/07/06 09:23:59;;;;;;;;;;;;;;;;;;5106673;28;19916;-80
2021/07/06 09:26:25;;;;;;;;;;;;;;;;;;5111117;28;20273;-81
2021/07/06 09:28:51;;;;;;;;;;;;;;;;;;5110403;28;19919;-80
2021/07/06 09:31:17;;;;;;;;;;;;;;;;;;5109889;28;19904;-82
2021/07/06 09:33:43;;;;;;;;;;;;;;;;;;5110261;28;19911;-81
2021/07/06 09:36:09;;;;;;;;;;;;;;;;;;5110042;28;19992;-82
2021/07/06 09:38:35;;;;;;;;;;;;;;;;;;5109975;28;19908;-79
2021/07/06 09:41:01;;;;;;;;;;;;;;;;;;5109599;28;19908;-79
2021/07/06 09:43:27;;;;;;;;;;;;;;;;;;5109166;28;20044;-82
2021/07/06 09:45:53;;;;;;;;;;;;;;;;;;5109471;28;20326;-83
2021/07/06 09:48:18;;;;;;;;;;;;;;;;;;5110086;28;19919;-81
2021/07/06 09:50:44;;;;;;;;;;;;;;;;;;5099440;28;19912;-83
2021/07/06 09:53:10;;;;;;;;;;;;;;;;;;5094229;28;19908;-81
2021/07/06 09:55:36;;;;;;;;;;;;;;;;;;5106507;28;19912;-82
2021/07/06 09:58:02;;;;;;;;;;;;;;;;;;5110518;28;19919;-80
2021/07/06 10:00:28;;;;;;;;;;;;;;;;;;5110988;28;20318;-81
2021/07/06 10:02:54;;;;;;;;;;;;;;;;;;5094043;28;19961;-82
2021/07/06 10:05:22;;;;;;;;;;;;;;;;;;5114109;28;20278;-78
2021/07/06 10:07:48;;;;;;;;;;;;;;;;;;5114617;28;20380;-81
2021/07/06 10:10:19;;;;;;;;;;;;;;;;;;5114379;28;19912;-82
2021/07/06 10:12:45;;;;;;;;;;;;;;;;;;5112117;28;19987;-82
2021/07/06 10:15:11;;;;;;;;;;;;;;;;;;5113104;28;19907;-82
2021/07/06 10:17:37;;;;;;;;;;;;;;;;;;5113252;28;19911;-82
2021/07/06 10:20:03;;;;;;;;;;;;;;;;;;5111505;28;19922;-84
2021/07/06 10:22:29;;;;;;;;;;;;;;;;;;5112259;28;20442;-82
2021/07/06 10:24:55;;;;;;;;;;;;;;;;;;5112159;28;19915;-84
2021/07/06 10:27:21;;;;;;;;;;;;;;;;;;5112843;28;19908;-83
2021/07/06 10:29:47;;;;;;;;;;;;;;;;;;5113569;28;19922;-82
2021/07/06 10:32:12;;;;;;;;;;;;;;;;;;5113084;28;20351;-82
2021/07/06 10:34:38;;;;;;;;;;;;;;;;;;5112847;28;19903;-81
2021/07/06 10:37:04;;;;;;;;;;;;;;;;;;5111822;28;20019;-81
2021/07/06 10:39:30;;;;;;;;;;;;;;;;;;5111179;28;19912;-82
2021/07/06 10:41:56;;;;;;;;;;;;;;;;;;5093936;28;19907;-80
2021/07/06 10:44:22;;;;;;;;;;;;;;;;;;5114679;28;19907;-82
2021/07/06 10:46:49;;;;;;;;;;;;;;;;;;5094268;28;19915;-80
2021/07/06 10:49:15;;;;;;;;;;;;;;;;;;5113057;28;19965;-84
2021/07/06 10:51:41;;;;;;;;;;;;;;;;;;5112578;28;20034;-84
2021/07/06 10:54:07;;;;;;;;;;;;;;;;;;5113683;28;20362;-84
2021/07/06 10:56:33;;;;;;;;;;;;;;;;;;5111490;28;20388;-85
2021/07/06 10:59:00;;;;;;;;;;;;;;;;;;5113384;28;20268;-85
2021/07/06 11:01:26;;;;;;;;;;;;;;;;;;5113774;28;20410;-86
2021/07/06 11:03:52;;;;;;;;;;;;;;;;;;5114671;28;19947;-85
2021/07/06 11:06:18;;;;;;;;;;;;;;;;;;5114651;28;19934;-88
2021/07/06 11:08:44;;;;;;;;;;;;;;;;;;5119820;28;19986;-84
2021/07/06 11:11:10;;;;;;;;;;;;;;;;;;5122327;28;19912;-84
2021/07/06 11:13:36;;;;;;;;;;;;;;;;;;5093254;28;19924;-86
2021/07/06 11:16:03;;;;;;;;;;;;;;;;;;5112059;28;19959;-88
2021/07/06 11:18:29;;;;;;;;;;;;;;;;;;5112439;28;19907;-81
2021/07/06 11:20:55;;;;;;;;;;;;;;;;;;5112658;28;20342;-81
2021/07/06 11:23:22;;;;;;;;;;;;;;;;;;5108993;28;20002;-80
2021/07/06 11:25:48;;;;;;;;;;;;;;;;;;5110272;28;19978;-82
2021/07/06 11:28:14;;;;;;;;;;;;;;;;;;5111680;28;20381;-83
2021/07/06 11:30:40;;;;;;;;;;;;;;;;;;5109238;28;19990;-80
2021/07/06 11:33:06;;;;;;;;;;;;;;;;;;5112036;28;19929;-81
2021/07/06 11:35:33;;;;;;;;;;;;;;;;;;5111075;28;19918;-81
2021/07/06 11:37:59;;;;;;;;;;;;;;;;;;5110270;28;19914;-82
2021/07/06 11:40:25;;;;;;;;;;;;;;;;;;5108230;28;19934;-80
2021/07/06 11:42:52;;;;;;;;;;;;;;;;;;5110817;28;20199;-82
2021/07/06 11:45:19;;;;;;;;;;;;;;;;;;5107370;28;19972;-82
2021/07/06 11:47:45;;;;;;;;;;;;;;;;;;5118896;28;19986;-81
2021/07/06 11:50:10;;;;;;;;;;;;;;;;;;5115806;28;19958;-82
2021/07/06 11:52:36;;;;;;;;;;;;;;;;;;5117016;28;19911;-83
2021/07/06 11:55:02;;;;;;;;;;;;;;;;;;5097968;28;19904;-82
2021/07/06 11:57:28;;;;;;;;;;;;;;;;;;5116443;28;19974;-81
2021/07/06 11:59:54;;;;;;;;;;;;;;;;;;5114157;28;19908;-83
2021/07/06 12:02:20;;;;;;;;;;;;;;;;;;5113470;28;19915;-85
2021/07/06 12:04:46;;;;;;;;;;;;;;;;;;5113409;28;19911;-81
2021/07/06 12:07:12;;;;;;;;;;;;;;;;;;5112137;28;19910;-82
2021/07/06 12:09:38;;;;;;;;;;;;;;;;;;5116234;28;20380;-82
2021/07/06 12:12:04;;;;;;;;;;;;;;;;;;5115796;28;19907;-82
2021/07/06 12:14:30;;;;;;;;;;;;;;;;;;5115339;28;19907;-81
2021/07/06 12:16:59;;;;;;;;;;;;;;;;;;5115557;28;20081;-83
2021/07/06 12:19:25;;;;;;;;;;;;;;;;;;5100798;28;20273;-83
2021/07/06 12:21:51;;;;;;;;;;;;;;;;;;5112087;28;20342;-82
2021/07/06 12:24:17;;;;;;;;;;;;;;;;;;5114428;28;19915;-84
2021/07/06 12:26:43;;;;;;;;;;;;;;;;;;5114475;28;19969;-81
2021/07/06 12:29:09;;;;;;;;;;;;;;;;;;5114683;28;19911;-83
2021/07/06 12:31:34;;;;;;;;;;;;;;;;;;5117599;28;19929;-84
2021/07/06 12:34:03;;;;;;;;;;;;;;;;;;5116381;28;19904;-83
2021/07/06 12:36:32;;;;;;;;;;;;;;;;;;5117444;28;19918;-83
2021/07/06 12:38:58;;;;;;;;;;;;;;;;;;5101061;28;19963;-84
2021/07/06 12:41:24;;;;;;;;;;;;;;;;;;5113601;28;19950;-85
2021/07/06 12:43:49;;;;;;;;;;;;;;;;;;5096949;28;20319;-83
2021/07/06 12:46:16;;;;;;;;;;;;;;;;;;5114475;28;19911;-84
2021/07/06 12:48:42;;;;;;;;;;;;;;;;;;5113557;28;19904;-82
2021/07/06 12:51:09;;;;;;;;;;;;;;;;;;5094314;28;19919;-82
2021/07/06 12:53:35;;;;;;;;;;;;;;;;;;5111244;28;19907;-82
2021/07/06 12:56:01;;;;;;;;;;;;;;;;;;5111386;28;19910;-83
2021/07/06 12:58:29;;;;;;;;;;;;;;;;;;5112050;28;19919;-84
2021/07/06 13:00:55;;;;;;;;;;;;;;;;;;5111896;28;20419;-83
2021/07/06 13:03:21;;;;;;;;;;;;;;;;;;5112223;28;19907;-83
2021/07/06 13:05:48;;;;;;;;;;;;;;;;;;5111565;28;20026;-84
2021/07/06 13:08:14;;;;;;;;;;;;;;;;;;5111306;28;19912;-83
2021/07/06 13:10:39;;;;;;;;;;;;;;;;;;5093244;28;19918;-83
2021/07/06 13:13:05;;;;;;;;;;;;;;;;;;5112285;28;19908;-84
2021/07/06 13:15:31;;;;;;;;;;;;;;;;;;5111815;28;19947;-84
2021/07/06 13:17:58;;;;;;;;;;;;;;;;;;5114196;28;20380;-84
2021/07/06 13:20:24;;;;;;;;;;;;;;;;;;5112379;28;19903;-84
2021/07/06 13:22:50;;;;;;;;;;;;;;;;;;5109903;28;19914;-82
2021/07/06 13:25:16;;;;;;;;;;;;;;;;;;5111465;28;19908;-85
2021/07/06 13:27:42;;;;;;;;;;;;;;;;;;5112344;28;20235;-85
2021/07/06 13:30:08;;;;;;;;;;;;;;;;;;5111528;28;19919;-84
2021/07/06 13:32:34;;;;;;;;;;;;;;;;;;5087961;28;19916;-85
2021/07/06 13:35:00;;;;;;;;;;;;;;;;;;5091233;28;20518;-84
2021/07/06 13:37:29;;;;;;;;;;;;;;;;;;5093902;28;19905;-84
2021/07/06 13:39:54;;;;;;;;;;;;;;;;;;5112165;28;19904;-84
2021/07/06 13:42:20;;;;;;;;;;;;;;;;;;5115341;28;19908;-84
2021/07/06 13:44:46;;;;;;;;;;;;;;;;;;5097048;28;19908;-83
2021/07/06 13:47:12;;;;;;;;;;;;;;;;;;5114362;28;19907;-85
2021/07/06 13:49:38;;;;;;;;;;;;;;;;;;5115662;28;19915;-85
2021/07/06 13:52:04;;;;;;;;;;;;;;;;;;5115000;28;20002;-85
2021/07/06 13:54:34;;;;;;;;;;;;;;;;;;5113946;28;19995;-83
2021/07/06 13:57:00;;;;;;;;;;;;;;;;;;5114477;28;20329;-84
2021/07/06 13:59:26;;;;;;;;;;;;;;;;;;5113971;28;20409;-84
2021/07/06 14:01:52;;;;;;;;;;;;;;;;;;5113756;28;20010;-84
2021/07/06 14:04:18;;;;;;;;;;;;;;;;;;5113559;28;19915;-84
2021/07/06 14:06:44;;;;;;;;;;;;;;;;;;5115039;28;19904;-85
2021/07/06 14:09:10;;;;;;;;;;;;;;;;;;5114435;28;19977;-84
2021/07/06 14:11:35;;;;;;;;;;;;;;;;;;5114032;28;20377;-85
2021/07/06 14:14:01;;;;;;;;;;;;;;;;;;5114655;28;19903;-85
2021/07/06 14:16:27;;;;;;;;;;;;;;;;;;5115009;28;19908;-84
2021/07/06 14:18:53;;;;;;;;;;;;;;;;;;5114645;28;19998;-83
2021/07/06 14:21:19;;;;;;;;;;;;;;;;;;5115601;28;19904;-84
2021/07/06 14:23:45;;;;;;;;;;;;;;;;;;5122917;28;19943;-84
2021/07/06 14:26:11;;;;;;;;;;;;;;;;;;5123919;28;19904;-83
2021/07/06 14:28:41;;;;;;;;;;;;;;;;;;5118138;28;19997;-84
2021/07/06 14:31:07;;;;;;;;;;;;;;;;;;5096267;28;20010;-83
2021/07/06 14:33:33;;;;;;;;;;;;;;;;;;5114545;28;20002;-84
2021/07/06 14:35:59;;;;;;;;;;;;;;;;;;5114405;28;20261;-84
2021/07/06 14:38:24;;;;;;;;;;;;;;;;;;5113573;28;19953;-83
2021/07/06 14:40:50;;;;;;;;;;;;;;;;;;5114663;28;20378;-83
2021/07/06 14:43:16;;;;;;;;;;;;;;;;;;5114234;28;19988;-85
2021/07/06 14:45:42;;;;;;;;;;;;;;;;;;5114544;28;19911;-84
2021/07/06 14:48:08;;;;;;;;;;;;;;;;;;5113016;28;20007;-85
2021/07/06 14:50:34;;;;;;;;;;;;;;;;;;5114383;28;19916;-84
2021/07/06 14:53:00;;;;;;;;;;;;;;;;;;5115289;28;19927;-85
2021/07/06 14:55:26;;;;;;;;;;;;;;;;;;5113657;28;19904;-85
2021/07/06 14:57:54;;;;;;;;;;;;;;;;;;5113412;28;19955;-85
2021/07/06 15:00:20;;;;;;;;;;;;;;;;;;5113691;28;19904;-85
2021/07/06 15:02:46;;;;;;;;;;;;;;;;;;5113639;28;19923;-85
2021/07/06 15:05:12;;;;;;;;;;;;;;;;;;5111971;28;19908;-86
2021/07/06 15:07:38;;;;;;;;;;;;;;;;;;5111906;28;19943;-85
2021/07/06 15:10:04;;;;;;;;;;;;;;;;;;5113120;28;19951;-84
2021/07/06 15:12:30;;;;;;;;;;;;;;;;;;5113173;28;19912;-84
2021/07/06 15:14:58;;;;;;;;;;;;;;;;;;5113369;28;19904;-85
2021/07/06 15:17:24;;;;;;;;;;;;;;;;;;5112990;28;19956;-85
2021/07/06 15:19:50;;;;;;;;;;;;;;;;;;5111685;28;19908;-84
2021/07/06 15:22:17;;;;;;;;;;;;;;;;;;5113124;28;19992;-85
2021/07/06 15:24:43;;;;;;;;;;;;;;;;;;5113676;28;19903;-85
2021/07/06 15:27:09;;;;;;;;;;;;;;;;;;5112996;28;19957;-85
2021/07/06 15:29:35;;;;;;;;;;;;;;;;;;5095507;28;20266;-85
2021/07/06 15:32:01;;;;;;;;;;;;;;;;;;5115683;28;20002;-84
2021/07/06 15:34:27;;;;;;;;;;;;;;;;;;5114341;28;19954;-84
2021/07/06 15:36:52;;;;;;;;;;;;;;;;;;5113825;28;19960;-84
2021/07/06 15:39:19;;;;;;;;;;;;;;;;;;5112806;28;19998;-83
2021/07/06 15:41:45;;;;;;;;;;;;;;;;;;5113117;28;20361;-83
2021/07/06 15:44:11;;;;;;;;;;;;;;;;;;5112390;28;19910;-83
2021/07/06 15:46:36;;;;;;;;;;;;;;;;;;5114753;28;19945;-85
2021/07/06 15:49:02;;;;;;;;;;;;;;;;;;5116914;28;19904;-83
2021/07/06 15:51:28;;;;;;;;;;;;;;;;;;5113768;28;20377;-85
2021/07/06 15:53:56;;;;;;;;;;;;;;;;;;5117676;28;19949;-85
2021/07/06 15:56:22;;;;;;;;;;;;;;;;;;5115472;28;20010;-84
2021/07/06 15:58:48;;;;;;;;;;;;;;;;;;5113584;28;19947;-84
2021/07/06 16:01:14;;;;;;;;;;;;;;;;;;5113431;28;19903;-85
2021/07/06 16:03:41;;;;;;;;;;;;;;;;;;5114303;28;20001;-84
2021/07/06 16:06:06;;;;;;;;;;;;;;;;;;5113329;28;19907;-83
2021/07/06 16:08:35;;;;;;;;;;;;;;;;;;5113658;28;19907;-84
2021/07/06 16:11:01;;;;;;;;;;;;;;;;;;5114031;28;19912;-84
2021/07/06 16:13:27;;;;;;;;;;;;;;;;;;5116224;28;19907;-85
2021/07/06 16:15:53;;;;;;;;;;;;;;;;;;5117351;28;19903;-84
2021/07/06 16:18:19;;;;;;;;;;;;;;;;;;5113760;28;19903;-85
2021/07/06 16:20:45;;;;;;;;;;;;;;;;;;5112866;28;20399;-85
2021/07/06 16:23:11;;;;;;;;;;;;;;;;;;5112356;28;19908;-84
2021/07/06 16:25:36;;;;;;;;;;;;;;;;;;5113073;28;19912;-82
2021/07/06 16:28:04;;;;;;;;;;;;;;;;;;5113568;28;20012;-85
2021/07/06 16:30:30;;;;;;;;;;;;;;;;;;5113084;28;19916;-83
2021/07/06 16:33:01;;;;;;;;;;;;;;;;;;5113450;28;19910;-84
2021/07/06 16:35:27;;;;;;;;;;;;;;;;;;5112399;28;20382;-84
2021/07/06 16:37:54;;;;;;;;;;;;;;;;;;5113786;28;20005;-84